sensor_id;sensor_type;location;lat;lon;timestamp;temperature;humidity
20998;DHT22;10657;51.276;6.390;2023-04-16T00:01:26;8.70;99.90
20998;DHT22;10657;51.276;6.390;2023-04-16T00:03:53;8.70;99.90
20998;DHT22;10657;51.276;6.390;2023-04-16T00:06:21;8.60;99.90
20998;DHT22;10657;51.276;6.390;2023-04-16T00:08:48;8.70;99.90
20998;DHT22;10657;51.276;6.390;2023-04-16T00:11:16;8.70;99.90
20998;DHT22;10657;51.276;6.390;2023-04-16T00:13:42;8.80;99.90
20998;DHT22;10657;51.276;6.390;2023-04-16T00:16:09;8.70;99.90
20998;DHT22;10657;51.276;6.390;2023-04-16T00:18:36;8.70;99.90
20998;DHT22;10657;51.276;6.390;2023-04-16T00:21:02;8.70;99.90
20998;DHT22;10657;51.276;6.390;2023-04-16T00:23:29;8.70;99.90
20998;DHT22;10657;51.276;6.390;2023-04-16T00:25:56;8.70;99.90
20998;DHT22;10657;51.276;6.390;2023-04-16T00:28:25;8.80;99.90
20998;DHT22;10657;51.276;6.390;2023-04-16T00:30:53;8.70;99.90
20998;DHT22;10657;51.276;6.390;2023-04-16T00:33:21;8.70;99.90
20998;DHT22;10657;51.276;6.390;2023-04-16T00:35:47;8.60;99.90
20998;DHT22;10657;51.276;6.390;2023-04-16T00:38:14;8.70;99.90
20998;DHT22;10657;51.276;6.390;2023-04-16T11:29:31;13.30;99.90
20998;DHT22;10657;51.276;6.390;2023-04-16T11:35:16;13.50;99.90
20998;DHT22;10657;51.276;6.390;2023-04-16T11:37:44;13.20;99.90
20998;DHT22;10657;51.276;6.390;2023-04-16T11:40:11;13.10;99.90
20998;DHT22;10657;51.276;6.390;2023-04-16T11:42:39;13.10;99.90
20998;DHT22;10657;51.276;6.390;2023-04-16T11:45:08;13.30;99.90
20998;DHT22;10657;51.276;6.390;2023-04-16T11:47:49;13.60;99.90
20998;DHT22;10657;51.276;6.390;2023-04-16T11:50:22;13.70;99.90
20998;DHT22;10657;51.276;6.390;2023-04-16T11:52:51;13.70;99.90
20998;DHT22;10657;51.276;6.390;2023-04-16T11:55:18;13.70;99.90
20998;DHT22;10657;51.276;6.390;2023-04-16T11:57:46;13.60;99.90
20998;DHT22;10657;51.276;6.390;2023-04-16T12:00:13;13.80;99.90
20998;DHT22;10657;51.276;6.390;2023-04-16T12:02:42;13.70;99.90
20998;DHT22;10657;51.276;6.390;2023-04-16T12:08:06;13.60;99.90
20998;DHT22;10657;51.276;6.390;2023-04-16T12:10:39;13.50;99.90
20998;DHT22;10657;51.276;6.390;2023-04-16T12:13:17;13.40;99.90
20998;DHT22;10657;51.276;6.390;2023-04-16T12:15:48;13.40;99.90
20998;DHT22;10657;51.276;6.390;2023-04-16T12:18:16;13.40;99.90
20998;DHT22;10657;51.276;6.390;2023-04-16T12:20:44;13.40;99.90
20998;DHT22;10657;51.276;6.390;2023-04-16T12:23:28;13.50;99.90
20998;DHT22;10657;51.276;6.390;2023-04-16T12:25:56;13.40;99.90
20998;DHT22;10657;51.276;6.390;2023-04-16T12:28:28;13.50;99.90
20998;DHT22;10657;51.276;6.390;2023-04-16T12:30:55;13.80;99.90
20998;DHT22;10657;51.276;6.390;2023-04-16T12:33:23;14.30;99.90
20998;DHT22;10657;51.276;6.390;2023-04-16T12:35:49;14.50;99.90
20998;DHT22;10657;51.276;6.390;2023-04-16T12:38:16;14.80;99.90
20998;DHT22;10657;51.276;6.390;2023-04-16T12:40:43;14.90;99.90
20998;DHT22;10657;51.276;6.390;2023-04-16T12:43:09;14.90;99.90
20998;DHT22;10657;51.276;6.390;2023-04-16T12:45:37;15.10;99.90
20998;DHT22;10657;51.276;6.390;2023-04-16T12:48:04;14.90;99.90
20998;DHT22;10657;51.276;6.390;2023-04-16T12:50:31;14.80;99.90
20998;DHT22;10657;51.276;6.390;2023-04-16T12:52:58;15.00;99.90
20998;DHT22;10657;51.276;6.390;2023-04-16T12:55:25;15.10;99.90
20998;DHT22;10657;51.276;6.390;2023-04-16T12:57:51;15.00;99.90
20998;DHT22;10657;51.276;6.390;2023-04-16T13:00:18;15.00;99.90
20998;DHT22;10657;51.276;6.390;2023-04-16T13:02:45;14.60;99.90
20998;DHT22;10657;51.276;6.390;2023-04-16T13:05:13;14.40;99.90
20998;DHT22;10657;51.276;6.390;2023-04-16T13:07:44;14.40;99.90
20998;DHT22;10657;51.276;6.390;2023-04-16T13:10:11;14.40;99.90
20998;DHT22;10657;51.276;6.390;2023-04-16T13:12:38;14.50;99.90
20998;DHT22;10657;51.276;6.390;2023-04-16T13:15:05;14.60;99.90
20998;DHT22;10657;51.276;6.390;2023-04-16T13:17:32;14.60;99.90
20998;DHT22;10657;51.276;6.390;2023-04-16T13:19:58;14.90;99.90
20998;DHT22;10657;51.276;6.390;2023-04-16T13:22:25;14.90;99.90
20998;DHT22;10657;51.276;6.390;2023-04-16T13:24:51;15.00;99.90
20998;DHT22;10657;51.276;6.390;2023-04-16T13:27:18;14.70;99.90
20998;DHT22;10657;51.276;6.390;2023-04-16T13:29:45;14.60;99.90
20998;DHT22;10657;51.276;6.390;2023-04-16T13:32:12;14.80;99.90
20998;DHT22;10657;51.276;6.390;2023-04-16T13:34:40;14.90;99.90
20998;DHT22;10657;51.276;6.390;2023-04-16T13:37:06;14.90;99.90
20998;DHT22;10657;51.276;6.390;2023-04-16T13:39:33;14.80;99.90
20998;DHT22;10657;51.276;6.390;2023-04-16T13:42:00;14.70;99.90
20998;DHT22;10657;51.276;6.390;2023-04-16T13:44:27;14.40;99.90
20998;DHT22;10657;51.276;6.390;2023-04-16T13:46:53;14.30;99.90
20998;DHT22;10657;51.276;6.390;2023-04-16T13:49:21;14.40;99.90
20998;DHT22;10657;51.276;6.390;2023-04-16T13:51:48;14.60;99.90
20998;DHT22;10657;51.276;6.390;2023-04-16T13:54:15;14.90;99.90
20998;DHT22;10657;51.276;6.390;2023-04-16T13:56:42;15.30;99.90
20998;DHT22;10657;51.276;6.390;2023-04-16T13:59:09;15.20;99.90
20998;DHT22;10657;51.276;6.390;2023-04-16T14:01:36;15.10;99.90
20998;DHT22;10657;51.276;6.390;2023-04-16T14:04:03;14.80;99.90
20998;DHT22;10657;51.276;6.390;2023-04-16T14:06:33;14.70;99.90
20998;DHT22;10657;51.276;6.390;2023-04-16T14:08:59;14.50;99.90
20998;DHT22;10657;51.276;6.390;2023-04-16T14:11:26;14.30;99.90
20998;DHT22;10657;51.276;6.390;2023-04-16T14:13:53;14.30;99.90
20998;DHT22;10657;51.276;6.390;2023-04-16T14:16:20;14.20;99.90
20998;DHT22;10657;51.276;6.390;2023-04-16T14:18:47;14.10;99.90
20998;DHT22;10657;51.276;6.390;2023-04-16T14:21:13;14.00;99.90
20998;DHT22;10657;51.276;6.390;2023-04-16T14:23:40;14.10;99.90
20998;DHT22;10657;51.276;6.390;2023-04-16T14:26:07;14.10;99.90
20998;DHT22;10657;51.276;6.390;2023-04-16T14:28:33;14.10;99.90
20998;DHT22;10657;51.276;6.390;2023-04-16T14:31:01;14.00;99.90
20998;DHT22;10657;51.276;6.390;2023-04-16T14:33:27;14.00;99.90
20998;DHT22;10657;51.276;6.390;2023-04-16T14:35:54;13.90;99.90
20998;DHT22;10657;51.276;6.390;2023-04-16T14:38:21;14.00;99.90
20998;DHT22;10657;51.276;6.390;2023-04-16T14:40:48;13.80;99.90
20998;DHT22;10657;51.276;6.390;2023-04-16T14:43:14;13.70;99.90
20998;DHT22;10657;51.276;6.390;2023-04-16T14:45:41;13.70;99.90
20998;DHT22;10657;51.276;6.390;2023-04-16T14:48:08;13.70;99.90
20998;DHT22;10657;51.276;6.390;2023-04-16T14:50:35;13.70;99.90
20998;DHT22;10657;51.276;6.390;2023-04-16T14:53:10;13.60;99.90
20998;DHT22;10657;51.276;6.390;2023-04-16T14:55:37;13.50;99.90
20998;DHT22;10657;51.276;6.390;2023-04-16T14:58:03;13.50;99.90
20998;DHT22;10657;51.276;6.390;2023-04-16T15:00:33;13.50;99.90
20998;DHT22;10657;51.276;6.390;2023-04-16T15:03:00;13.40;99.90
20998;DHT22;10657;51.276;6.390;2023-04-16T15:05:27;13.30;99.90
20998;DHT22;10657;51.276;6.390;2023-04-16T15:07:55;13.20;99.90
20998;DHT22;10657;51.276;6.390;2023-04-16T15:10:21;13.20;99.90
20998;DHT22;10657;51.276;6.390;2023-04-16T15:12:48;13.20;99.90
20998;DHT22;10657;51.276;6.390;2023-04-16T15:15:14;13.20;99.90
20998;DHT22;10657;51.276;6.390;2023-04-16T15:17:42;13.20;99.90
20998;DHT22;10657;51.276;6.390;2023-04-16T15:20:09;13.20;99.90
20998;DHT22;10657;51.276;6.390;2023-04-16T15:22:36;13.10;99.90
20998;DHT22;10657;51.276;6.390;2023-04-16T15:25:04;12.90;99.90
20998;DHT22;10657;51.276;6.390;2023-04-16T15:27:31;12.80;99.90
20998;DHT22;10657;51.276;6.390;2023-04-16T15:29:58;12.80;99.90
20998;DHT22;10657;51.276;6.390;2023-04-16T15:32:25;12.80;99.90
20998;DHT22;10657;51.276;6.390;2023-04-16T15:34:51;12.80;99.90
20998;DHT22;10657;51.276;6.390;2023-04-16T15:37:18;12.90;99.90
20998;DHT22;10657;51.276;6.390;2023-04-16T15:39:44;12.80;99.90
20998;DHT22;10657;51.276;6.390;2023-04-16T15:42:11;12.90;99.90
20998;DHT22;10657;51.276;6.390;2023-04-16T15:44:38;12.90;99.90
20998;DHT22;10657;51.276;6.390;2023-04-16T15:47:05;12.90;99.90
20998;DHT22;10657;51.276;6.390;2023-04-16T15:49:34;12.90;99.90
20998;DHT22;10657;51.276;6.390;2023-04-16T15:52:01;12.80;99.90
20998;DHT22;10657;51.276;6.390;2023-04-16T15:54:28;12.90;99.90
20998;DHT22;10657;51.276;6.390;2023-04-16T15:56:56;12.90;99.90
20998;DHT22;10657;51.276;6.390;2023-04-16T15:59:25;12.80;99.90
20998;DHT22;10657;51.276;6.390;2023-04-16T16:01:51;12.70;99.90
20998;DHT22;10657;51.276;6.390;2023-04-16T16:04:18;12.60;99.90
20998;DHT22;10657;51.276;6.390;2023-04-16T16:06:48;12.60;99.90
20998;DHT22;10657;51.276;6.390;2023-04-16T16:09:15;12.70;99.90
20998;DHT22;10657;51.276;6.390;2023-04-16T16:11:42;12.60;99.90
20998;DHT22;10657;51.276;6.390;2023-04-16T16:14:09;12.60;99.90
20998;DHT22;10657;51.276;6.390;2023-04-16T16:16:36;12.60;99.90
20998;DHT22;10657;51.276;6.390;2023-04-16T16:19:02;12.50;99.90
20998;DHT22;10657;51.276;6.390;2023-04-16T16:21:29;12.50;99.90
20998;DHT22;10657;51.276;6.390;2023-04-16T16:23:56;12.40;99.90
20998;DHT22;10657;51.276;6.390;2023-04-16T16:26:23;12.40;99.90
20998;DHT22;10657;51.276;6.390;2023-04-16T16:28:49;12.40;99.90
20998;DHT22;10657;51.276;6.390;2023-04-16T16:31:16;12.30;99.90
20998;DHT22;10657;51.276;6.390;2023-04-16T16:33:43;12.40;99.90
20998;DHT22;10657;51.276;6.390;2023-04-16T16:36:10;12.40;99.90
20998;DHT22;10657;51.276;6.390;2023-04-16T16:38:37;12.40;99.90
20998;DHT22;10657;51.276;6.390;2023-04-16T16:41:05;12.30;99.90
20998;DHT22;10657;51.276;6.390;2023-04-16T16:43:33;12.20;99.90
20998;DHT22;10657;51.276;6.390;2023-04-16T16:46:00;12.10;99.90
20998;DHT22;10657;51.276;6.390;2023-04-16T16:48:27;12.10;99.90
20998;DHT22;10657;51.276;6.390;2023-04-16T16:50:54;12.10;99.90
20998;DHT22;10657;51.276;6.390;2023-04-16T16:53:20;12.20;99.90
20998;DHT22;10657;51.276;6.390;2023-04-16T16:55:47;12.20;99.90
20998;DHT22;10657;51.276;6.390;2023-04-16T16:58:14;12.20;99.90
20998;DHT22;10657;51.276;6.390;2023-04-16T17:00:40;12.20;99.90
20998;DHT22;10657;51.276;6.390;2023-04-16T17:03:07;12.20;99.90
20998;DHT22;10657;51.276;6.390;2023-04-16T17:05:34;12.30;99.90
20998;DHT22;10657;51.276;6.390;2023-04-16T17:08:01;12.20;99.90
20998;DHT22;10657;51.276;6.390;2023-04-16T17:10:28;12.20;99.90
20998;DHT22;10657;51.276;6.390;2023-04-16T17:12:55;12.20;99.90
20998;DHT22;10657;51.276;6.390;2023-04-16T17:15:21;12.20;99.90
20998;DHT22;10657;51.276;6.390;2023-04-16T17:17:48;12.10;99.90
20998;DHT22;10657;51.276;6.390;2023-04-16T17:20:15;12.10;99.90
20998;DHT22;10657;51.276;6.390;2023-04-16T17:22:42;12.00;99.90
20998;DHT22;10657;51.276;6.390;2023-04-16T17:25:08;12.00;99.90
20998;DHT22;10657;51.276;6.390;2023-04-16T17:27:35;11.90;99.90
20998;DHT22;10657;51.276;6.390;2023-04-16T17:30:03;11.90;99.90
20998;DHT22;10657;51.276;6.390;2023-04-16T17:32:31;11.90;99.90
20998;DHT22;10657;51.276;6.390;2023-04-16T17:34:59;11.90;99.90
20998;DHT22;10657;51.276;6.390;2023-04-16T17:37:26;11.90;99.90
20998;DHT22;10657;51.276;6.390;2023-04-16T17:39:53;11.90;99.90
20998;DHT22;10657;51.276;6.390;2023-04-16T17:42:20;11.90;99.90
20998;DHT22;10657;51.276;6.390;2023-04-16T17:44:47;11.90;99.90
20998;DHT22;10657;51.276;6.390;2023-04-16T17:47:13;11.90;99.90
20998;DHT22;10657;51.276;6.390;2023-04-16T17:49:40;11.90;99.90
20998;DHT22;10657;51.276;6.390;2023-04-16T17:52:07;11.90;99.90
20998;DHT22;10657;51.276;6.390;2023-04-16T17:54:33;11.90;99.90
20998;DHT22;10657;51.276;6.390;2023-04-16T17:57:00;11.90;99.90
20998;DHT22;10657;51.276;6.390;2023-04-16T17:59:27;11.80;99.90
20998;DHT22;10657;51.276;6.390;2023-04-16T18:01:54;11.80;99.90
20998;DHT22;10657;51.276;6.390;2023-04-16T18:04:22;11.70;99.90
20998;DHT22;10657;51.276;6.390;2023-04-16T18:06:49;11.70;99.90
20998;DHT22;10657;51.276;6.390;2023-04-16T18:09:15;11.70;99.90
20998;DHT22;10657;51.276;6.390;2023-04-16T18:11:43;11.70;99.90
20998;DHT22;10657;51.276;6.390;2023-04-16T18:14:09;11.70;99.90
20998;DHT22;10657;51.276;6.390;2023-04-16T18:16:39;11.70;99.90
20998;DHT22;10657;51.276;6.390;2023-04-16T18:19:07;11.70;99.90
20998;DHT22;10657;51.276;6.390;2023-04-16T18:21:33;11.60;99.90
20998;DHT22;10657;51.276;6.390;2023-04-16T18:24:01;11.70;99.90
20998;DHT22;10657;51.276;6.390;2023-04-16T18:26:28;11.60;99.90
20998;DHT22;10657;51.276;6.390;2023-04-16T18:28:55;11.60;99.90
20998;DHT22;10657;51.276;6.390;2023-04-16T18:31:22;11.60;99.90
20998;DHT22;10657;51.276;6.390;2023-04-16T18:33:49;11.50;99.90
20998;DHT22;10657;51.276;6.390;2023-04-16T18:36:24;11.50;99.90
20998;DHT22;10657;51.276;6.390;2023-04-16T18:38:52;11.50;99.90
20998;DHT22;10657;51.276;6.390;2023-04-16T18:41:28;11.40;99.90
20998;DHT22;10657;51.276;6.390;2023-04-16T18:43:56;11.40;99.90
20998;DHT22;10657;51.276;6.390;2023-04-16T18:46:22;11.40;99.90
20998;DHT22;10657;51.276;6.390;2023-04-16T18:48:49;11.30;99.90
20998;DHT22;10657;51.276;6.390;2023-04-16T18:51:16;11.40;99.90
20998;DHT22;10657;51.276;6.390;2023-04-16T18:53:43;11.30;99.90
20998;DHT22;10657;51.276;6.390;2023-04-16T18:56:11;11.20;99.90
20998;DHT22;10657;51.276;6.390;2023-04-16T18:58:37;11.30;99.90
20998;DHT22;10657;51.276;6.390;2023-04-16T19:01:04;11.30;99.90
20998;DHT22;10657;51.276;6.390;2023-04-16T19:03:36;11.30;99.90
20998;DHT22;10657;51.276;6.390;2023-04-16T19:06:03;11.20;99.90
20998;DHT22;10657;51.276;6.390;2023-04-16T19:08:31;11.30;99.90
20998;DHT22;10657;51.276;6.390;2023-04-16T19:10:57;11.20;99.90
20998;DHT22;10657;51.276;6.390;2023-04-16T19:13:24;11.20;99.90
20998;DHT22;10657;51.276;6.390;2023-04-16T19:15:56;11.20;99.90
20998;DHT22;10657;51.276;6.390;2023-04-16T19:18:23;11.20;99.90
20998;DHT22;10657;51.276;6.390;2023-04-16T19:20:50;11.10;99.90
20998;DHT22;10657;51.276;6.390;2023-04-16T19:23:16;11.20;99.90
20998;DHT22;10657;51.276;6.390;2023-04-16T19:25:43;11.20;99.90
20998;DHT22;10657;51.276;6.390;2023-04-16T19:28:10;11.20;99.90
20998;DHT22;10657;51.276;6.390;2023-04-16T19:30:36;11.00;99.90
20998;DHT22;10657;51.276;6.390;2023-04-16T19:33:04;11.10;99.90
20998;DHT22;10657;51.276;6.390;2023-04-16T19:35:31;11.00;99.90
20998;DHT22;10657;51.276;6.390;2023-04-16T19:37:59;11.10;99.90
20998;DHT22;10657;51.276;6.390;2023-04-16T19:40:26;11.10;99.90
20998;DHT22;10657;51.276;6.390;2023-04-16T19:42:53;11.00;99.90
20998;DHT22;10657;51.276;6.390;2023-04-16T19:45:20;11.00;99.90
20998;DHT22;10657;51.276;6.390;2023-04-16T19:47:51;11.00;99.90
20998;DHT22;10657;51.276;6.390;2023-04-16T19:50:18;11.00;99.90
20998;DHT22;10657;51.276;6.390;2023-04-16T19:52:44;11.00;99.90
20998;DHT22;10657;51.276;6.390;2023-04-16T19:55:11;10.90;99.90
20998;DHT22;10657;51.276;6.390;2023-04-16T19:57:38;10.90;99.90
20998;DHT22;10657;51.276;6.390;2023-04-16T20:00:05;10.90;99.90
20998;DHT22;10657;51.276;6.390;2023-04-16T20:02:36;11.00;99.90
20998;DHT22;10657;51.276;6.390;2023-04-16T20:05:03;11.00;99.90
20998;DHT22;10657;51.276;6.390;2023-04-16T20:07:30;11.00;99.90
20998;DHT22;10657;51.276;6.390;2023-04-16T20:09:57;10.90;99.90
20998;DHT22;10657;51.276;6.390;2023-04-16T20:12:23;10.90;99.90
20998;DHT22;10657;51.276;6.390;2023-04-16T20:14:51;10.90;99.90
20998;DHT22;10657;51.276;6.390;2023-04-16T20:17:17;10.90;99.90
20998;DHT22;10657;51.276;6.390;2023-04-16T20:19:45;10.90;99.90
20998;DHT22;10657;51.276;6.390;2023-04-16T20:22:15;10.90;99.90
20998;DHT22;10657;51.276;6.390;2023-04-16T20:24:43;10.90;99.90
20998;DHT22;10657;51.276;6.390;2023-04-16T20:27:13;10.90;99.90
20998;DHT22;10657;51.276;6.390;2023-04-16T20:29:41;10.70;99.90
20998;DHT22;10657;51.276;6.390;2023-04-16T20:32:07;10.70;99.90
20998;DHT22;10657;51.276;6.390;2023-04-16T20:34:34;10.70;99.90
20998;DHT22;10657;51.276;6.390;2023-04-16T20:37:04;10.70;99.90
20998;DHT22;10657;51.276;6.390;2023-04-16T20:39:31;10.70;99.90
20998;DHT22;10657;51.276;6.390;2023-04-16T20:42:05;10.70;99.90
20998;DHT22;10657;51.276;6.390;2023-04-16T20:44:36;10.70;99.90
20998;DHT22;10657;51.276;6.390;2023-04-16T20:47:09;10.70;99.90
20998;DHT22;10657;51.276;6.390;2023-04-16T20:49:37;10.70;99.90
20998;DHT22;10657;51.276;6.390;2023-04-16T20:52:04;10.70;99.90
20998;DHT22;10657;51.276;6.390;2023-04-16T20:54:30;10.70;99.90
20998;DHT22;10657;51.276;6.390;2023-04-16T20:56:57;10.70;99.90
20998;DHT22;10657;51.276;6.390;2023-04-16T20:59:24;10.60;99.90
20998;DHT22;10657;51.276;6.390;2023-04-16T21:01:51;10.60;99.90
20998;DHT22;10657;51.276;6.390;2023-04-16T21:04:18;10.70;99.90
20998;DHT22;10657;51.276;6.390;2023-04-16T21:06:45;10.60;99.90
20998;DHT22;10657;51.276;6.390;2023-04-16T21:09:12;10.50;99.90
20998;DHT22;10657;51.276;6.390;2023-04-16T21:11:39;10.50;99.90
20998;DHT22;10657;51.276;6.390;2023-04-16T21:14:05;10.60;99.90
20998;DHT22;10657;51.276;6.390;2023-04-16T21:16:32;10.60;99.90
20998;DHT22;10657;51.276;6.390;2023-04-16T21:18:59;10.50;99.90
20998;DHT22;10657;51.276;6.390;2023-04-16T21:21:25;10.40;99.90
20998;DHT22;10657;51.276;6.390;2023-04-16T21:23:52;10.50;99.90
20998;DHT22;10657;51.276;6.390;2023-04-16T21:26:19;10.40;99.90
20998;DHT22;10657;51.276;6.390;2023-04-16T21:28:46;10.30;99.90
20998;DHT22;10657;51.276;6.390;2023-04-16T21:31:12;10.30;99.90
20998;DHT22;10657;51.276;6.390;2023-04-16T21:33:39;10.30;99.90
20998;DHT22;10657;51.276;6.390;2023-04-16T21:36:06;10.30;99.90
20998;DHT22;10657;51.276;6.390;2023-04-16T21:38:33;10.30;99.90
20998;DHT22;10657;51.276;6.390;2023-04-16T21:41:00;10.20;99.90
20998;DHT22;10657;51.276;6.390;2023-04-16T21:43:27;10.20;99.90
20998;DHT22;10657;51.276;6.390;2023-04-16T21:45:58;10.20;99.90
20998;DHT22;10657;51.276;6.390;2023-04-16T21:48:25;10.20;99.90
20998;DHT22;10657;51.276;6.390;2023-04-16T21:50:56;10.20;99.90
20998;DHT22;10657;51.276;6.390;2023-04-16T21:53:24;10.20;99.90
20998;DHT22;10657;51.276;6.390;2023-04-16T21:55:51;10.20;99.90
20998;DHT22;10657;51.276;6.390;2023-04-16T21:58:17;10.20;99.90
20998;DHT22;10657;51.276;6.390;2023-04-16T22:00:44;10.10;99.90
20998;DHT22;10657;51.276;6.390;2023-04-16T22:03:12;10.10;99.90
20998;DHT22;10657;51.276;6.390;2023-04-16T22:05:39;10.20;99.90
20998;DHT22;10657;51.276;6.390;2023-04-16T22:08:06;10.20;99.90
20998;DHT22;10657;51.276;6.390;2023-04-16T22:10:49;10.20;99.90
20998;DHT22;10657;51.276;6.390;2023-04-16T22:13:16;10.30;99.90
20998;DHT22;10657;51.276;6.390;2023-04-16T22:15:43;10.30;99.90
20998;DHT22;10657;51.276;6.390;2023-04-16T22:18:09;10.20;99.90
20998;DHT22;10657;51.276;6.390;2023-04-16T22:20:36;10.20;99.90
20998;DHT22;10657;51.276;6.390;2023-04-16T22:23:05;10.30;99.90
20998;DHT22;10657;51.276;6.390;2023-04-16T22:25:32;10.20;99.90
20998;DHT22;10657;51.276;6.390;2023-04-16T22:27:59;10.30;99.90
20998;DHT22;10657;51.276;6.390;2023-04-16T22:30:27;10.30;99.90
20998;DHT22;10657;51.276;6.390;2023-04-16T22:32:53;10.20;99.90
20998;DHT22;10657;51.276;6.390;2023-04-16T22:35:20;10.20;99.90
20998;DHT22;10657;51.276;6.390;2023-04-16T22:37:47;10.20;99.90
20998;DHT22;10657;51.276;6.390;2023-04-16T22:40:14;10.30;99.90
20998;DHT22;10657;51.276;6.390;2023-04-16T22:42:41;10.30;99.90
20998;DHT22;10657;51.276;6.390;2023-04-16T22:45:08;10.30;99.90
20998;DHT22;10657;51.276;6.390;2023-04-16T22:47:34;10.30;99.90
20998;DHT22;10657;51.276;6.390;2023-04-16T22:50:01;10.40;99.90
20998;DHT22;10657;51.276;6.390;2023-04-16T22:52:28;10.40;99.90
20998;DHT22;10657;51.276;6.390;2023-04-16T22:54:55;10.40;99.90
20998;DHT22;10657;51.276;6.390;2023-04-16T22:57:22;10.40;99.90
20998;DHT22;10657;51.276;6.390;2023-04-16T22:59:51;10.40;99.90
20998;DHT22;10657;51.276;6.390;2023-04-16T23:02:19;10.30;99.90
20998;DHT22;10657;51.276;6.390;2023-04-16T23:04:46;10.30;99.90
20998;DHT22;10657;51.276;6.390;2023-04-16T23:07:14;10.30;99.90
20998;DHT22;10657;51.276;6.390;2023-04-16T23:09:41;10.30;99.90
20998;DHT22;10657;51.276;6.390;2023-04-16T23:12:08;10.30;99.90
20998;DHT22;10657;51.276;6.390;2023-04-16T23:14:34;10.30;99.90
20998;DHT22;10657;51.276;6.390;2023-04-16T23:17:02;10.30;99.90
20998;DHT22;10657;51.276;6.390;2023-04-16T23:19:29;10.20;99.90
20998;DHT22;10657;51.276;6.390;2023-04-16T23:21:56;10.20;99.90
20998;DHT22;10657;51.276;6.390;2023-04-16T23:24:23;10.30;99.90
20998;DHT22;10657;51.276;6.390;2023-04-16T23:26:49;10.30;99.90
20998;DHT22;10657;51.276;6.390;2023-04-16T23:29:18;10.30;99.90
20998;DHT22;10657;51.276;6.390;2023-04-16T23:31:44;10.30;99.90
20998;DHT22;10657;51.276;6.390;2023-04-16T23:34:11;10.30;99.90
20998;DHT22;10657;51.276;6.390;2023-04-16T23:36:38;10.30;99.90
20998;DHT22;10657;51.276;6.390;2023-04-16T23:39:06;10.30;99.90
20998;DHT22;10657;51.276;6.390;2023-04-16T23:41:33;10.20;99.90
20998;DHT22;10657;51.276;6.390;2023-04-16T23:43:59;10.30;99.90
20998;DHT22;10657;51.276;6.390;2023-04-16T23:46:26;10.30;99.90
20998;DHT22;10657;51.276;6.390;2023-04-16T23:48:53;10.40;99.90
20998;DHT22;10657;51.276;6.390;2023-04-16T23:51:20;10.30;99.90
20998;DHT22;10657;51.276;6.390;2023-04-16T23:53:47;10.30;99.90
20998;DHT22;10657;51.276;6.390;2023-04-16T23:56:14;10.30;99.90
20998;DHT22;10657;51.276;6.390;2023-04-16T23:58:41;10.40;99.90
